Time;durP1;ratioP1;P1;durP2;ratioP2;P2;SDS_P1;SDS_P2;PMS_P1;PMS_P2;Temp;Humidity;BMP_temperature;BMP_pressure;BME280_temperature;BME280_humidity;BME280_pressure;Samples;Min_cycle;Max_cycle;Signal;HPM_P1;HPM_P2
2022/10/25 00:01:24;;;;;;;23.20;13.80;;;12.70;99.90;;;;;;4902437;29;20126;-71
2022/10/25 00:03:50;;;;;;;26.83;14.48;;;12.70;99.90;;;;;;4902012;29;20070;-71
2022/10/25 00:06:16;;;;;;;23.02;14.93;;;12.70;99.90;;;;;;4901870;29;20485;-71
2022/10/25 00:08:42;;;;;;;23.90;15.05;;;12.70;99.90;;;;;;4900986;29;20040;-71
2022/10/25 00:11:22;;;;;;;23.13;15.25;;;12.70;99.90;;;;;;4928973;28;20116;-71
2022/10/25 00:13:49;;;;;;;23.85;15.55;;;12.70;99.90;;;;;;4995083;28;20054;-71
2022/10/25 00:16:19;;;;;;;25.35;15.15;;;12.70;99.90;;;;;;4979115;28;20046;-71
2022/10/25 00:18:44;;;;;;;23.58;15.13;;;12.70;99.90;;;;;;4978808;28;20093;-71
2022/10/25 00:21:10;;;;;;;23.70;14.85;;;12.70;99.90;;;;;;4979200;28;20446;-71
2022/10/25 00:23:36;;;;;;;23.40;15.15;;;12.60;99.90;;;;;;4978541;28;20042;-71
2022/10/25 00:26:03;;;;;;;27.83;16.02;;;12.70;99.90;;;;;;4995140;28;20046;-71
2022/10/25 00:28:28;;;;;;;25.25;15.43;;;12.70;99.90;;;;;;4978866;28;20062;-71
2022/10/25 00:31:09;;;;;;;26.38;14.82;;;12.70;99.90;;;;;;4994642;28;20121;-71
2022/10/25 00:33:36;;;;;;;28.52;15.90;;;12.70;99.90;;;;;;4979143;28;20038;-71
2022/10/25 00:36:07;;;;;;;20.95;15.52;;;12.70;99.90;;;;;;4995209;28;20061;-71
2022/10/25 00:38:33;;;;;;;26.42;15.95;;;12.80;99.90;;;;;;4979765;28;20053;-71
2022/10/25 00:41:00;;;;;;;26.25;16.05;;;12.70;99.90;;;;;;4994770;28;20038;-71
2022/10/25 00:43:32;;;;;;;24.65;15.15;;;12.80;99.90;;;;;;4994937;28;20038;-71
2022/10/25 00:46:00;;;;;;;25.02;15.65;;;12.80;99.90;;;;;;4994898;28;20030;-71
2022/10/25 00:48:27;;;;;;;25.00;14.93;;;12.80;99.90;;;;;;4994593;28;20046;-70
2022/10/25 00:50:54;;;;;;;25.73;15.27;;;12.80;99.90;;;;;;4978688;28;20120;-71
2022/10/25 00:53:23;;;;;;;23.45;15.57;;;12.90;99.90;;;;;;4978048;28;20093;-71
2022/10/25 00:56:14;;;;;;;24.45;13.65;;;12.80;99.90;;;;;;4978217;28;20038;-71
2022/10/25 00:58:44;;;;;;;26.48;14.30;;;12.80;99.90;;;;;;4978020;28;20426;-71
2022/10/25 01:01:09;;;;;;;21.00;14.15;;;12.80;99.90;;;;;;4978174;28;20038;-71
2022/10/25 01:03:38;;;;;;;29.77;14.07;;;12.80;99.90;;;;;;4978276;28;20050;-71
2022/10/25 01:06:11;;;;;;;23.92;14.18;;;12.90;99.90;;;;;;4977940;28;20117;-71
2022/10/25 01:08:38;;;;;;;20.13;12.98;;;12.80;99.90;;;;;;4994156;28;20046;-71
2022/10/25 01:11:04;;;;;;;19.38;12.30;;;12.80;99.90;;;;;;4977792;28;20046;-71
2022/10/25 01:13:30;;;;;;;24.65;12.57;;;12.80;99.90;;;;;;4978025;28;20042;-70
2022/10/25 01:16:37;;;;;;;21.40;12.93;;;12.80;99.90;;;;;;4993994;28;20066;-71
2022/10/25 01:19:24;;;;;;;21.10;13.07;;;12.80;99.90;;;;;;4977984;28;20053;-71
2022/10/25 01:22:00;;;;;;;23.75;13.05;;;12.80;99.90;;;;;;4978074;28;20119;-71
2022/10/25 01:25:07;;;;;;;22.00;12.55;;;12.80;99.90;;;;;;4978096;28;20121;-71
2022/10/25 01:28:11;;;;;;;20.65;11.88;;;12.80;99.90;;;;;;4977899;28;20499;-71
2022/10/25 01:30:42;;;;;;;23.27;12.38;;;12.80;99.90;;;;;;4977470;28;20047;-71
2022/10/25 01:33:19;;;;;;;18.48;12.32;;;12.80;99.90;;;;;;4977910;28;20456;-71
2022/10/25 01:35:59;;;;;;;22.35;13.23;;;12.80;99.90;;;;;;4977267;28;20101;-71
2022/10/25 01:38:59;;;;;;;24.48;14.02;;;12.80;99.90;;;;;;4977179;28;20041;-71
2022/10/25 01:41:40;;;;;;;25.05;14.10;;;12.90;99.90;;;;;;4976867;28;20042;-70
2022/10/25 01:44:31;;;;;;;28.42;14.57;;;12.80;99.90;;;;;;4993279;28;20046;-70
2022/10/25 01:47:20;;;;;;;26.85;14.98;;;12.90;99.90;;;;;;4993171;28;20035;-70
2022/10/25 01:50:11;;;;;;;26.00;13.57;;;12.90;99.90;;;;;;4977160;28;20120;-70
2022/10/25 01:52:37;;;;;;;22.95;14.15;;;12.90;99.90;;;;;;4976758;28;20030;-70
2022/10/25 01:55:07;;;;;;;22.48;12.38;;;12.90;99.90;;;;;;4976832;28;20189;-71
2022/10/25 01:57:54;;;;;;;23.27;13.07;;;12.90;99.90;;;;;;4976977;28;20081;-71
2022/10/25 02:00:22;;;;;;;28.58;13.68;;;13.00;99.90;;;;;;4976706;28;20042;-70
2022/10/25 02:03:19;;;;;;;21.83;12.32;;;13.00;99.90;;;;;;4976651;28;20412;-70
2022/10/25 02:05:44;;;;;;;32.35;13.98;;;13.00;99.90;;;;;;4976963;28;20055;-70
2022/10/25 02:08:22;;;;;;;22.75;12.70;;;12.90;99.90;;;;;;4977204;28;20137;-71
2022/10/25 02:11:02;;;;;;;23.15;12.60;;;13.00;99.90;;;;;;4976844;28;20046;-71
2022/10/25 02:13:58;;;;;;;18.75;11.77;;;13.00;99.90;;;;;;4976942;28;20085;-71
2022/10/25 02:16:31;;;;;;;23.02;11.90;;;13.00;99.90;;;;;;4993247;28;20058;-71
2022/10/25 02:19:05;;;;;;;22.75;12.32;;;13.00;99.90;;;;;;4992827;28;20407;-71
2022/10/25 02:21:33;;;;;;;20.67;11.20;;;13.10;99.90;;;;;;4977006;28;20034;-71
2022/10/25 02:24:05;;;;;;;18.90;12.15;;;13.00;99.90;;;;;;4976559;28;20053;-71
2022/10/25 02:26:33;;;;;;;22.25;12.65;;;13.10;99.90;;;;;;4977029;28;20046;-71
2022/10/25 02:29:00;;;;;;;20.58;12.32;;;13.10;99.90;;;;;;4992655;28;20042;-71
2022/10/25 02:31:29;;;;;;;20.42;11.70;;;13.10;99.90;;;;;;4979149;28;20042;-71
2022/10/25 02:33:54;;;;;;;22.50;11.95;;;13.10;99.90;;;;;;4980327;28;20057;-71
2022/10/25 02:36:22;;;;;;;24.33;12.38;;;13.10;99.90;;;;;;4980548;28;20038;-71
2022/10/25 02:38:49;;;;;;;21.95;12.30;;;13.10;99.90;;;;;;4979962;28;20050;-70
2022/10/25 02:41:16;;;;;;;26.52;13.15;;;13.10;99.90;;;;;;4979894;28;20088;-70
2022/10/25 02:43:42;;;;;;;22.63;12.77;;;13.10;99.90;;;;;;4979992;28;20038;-71
2022/10/25 02:46:10;;;;;;;24.42;12.27;;;13.10;99.90;;;;;;4980178;28;20042;-70
2022/10/25 02:48:36;;;;;;;19.30;12.15;;;13.10;99.90;;;;;;4979454;28;20117;-70
2022/10/25 02:51:02;;;;;;;25.25;12.43;;;13.10;99.90;;;;;;4995912;28;20038;-71
2022/10/25 02:53:28;;;;;;;23.02;13.27;;;13.10;99.90;;;;;;4979923;28;20034;-70
2022/10/25 02:56:10;;;;;;;24.98;12.95;;;13.10;99.90;;;;;;4979828;28;20042;-71
2022/10/25 02:58:38;;;;;;;21.27;13.53;;;13.20;99.90;;;;;;4980044;28;20042;-70
2022/10/25 03:01:05;;;;;;;24.27;13.45;;;13.10;99.90;;;;;;4979688;28;20042;-70
2022/10/25 03:03:31;;;;;;;23.92;13.05;;;13.10;99.90;;;;;;4996053;28;20042;-71
2022/10/25 03:05:57;;;;;;;24.52;14.38;;;13.20;99.90;;;;;;4979943;28;20127;-71
2022/10/25 03:08:24;;;;;;;19.83;13.43;;;13.20;99.90;;;;;;4979878;28;20042;-70
2022/10/25 03:10:50;;;;;;;22.67;13.13;;;13.20;99.90;;;;;;4979751;28;20042;-71
2022/10/25 03:13:16;;;;;;;24.05;13.85;;;13.20;99.90;;;;;;4995946;28;20129;-71
2022/10/25 03:15:42;;;;;;;24.98;13.05;;;13.20;99.90;;;;;;4995871;28;20034;-71
2022/10/25 03:18:08;;;;;;;22.85;12.68;;;13.20;99.90;;;;;;4979601;28;20042;-71
2022/10/25 03:20:34;;;;;;;24.67;12.98;;;13.20;99.90;;;;;;4979515;28;20040;-71
2022/10/25 03:22:59;;;;;;;23.17;13.00;;;13.20;99.90;;;;;;4979483;28;20105;-71
2022/10/25 03:25:25;;;;;;;22.63;13.15;;;13.20;99.90;;;;;;4979409;28;20077;-71
2022/10/25 03:27:50;;;;;;;25.65;12.75;;;13.10;99.90;;;;;;4979782;28;20042;-71
2022/10/25 03:30:16;;;;;;;24.85;12.73;;;13.10;99.90;;;;;;4979218;28;20038;-71
2022/10/25 03:32:42;;;;;;;19.30;11.48;;;13.10;99.90;;;;;;4979252;28;20050;-71
2022/10/25 03:35:08;;;;;;;22.88;12.40;;;13.10;99.90;;;;;;4979048;28;20046;-71
2022/10/25 03:37:33;;;;;;;25.63;12.52;;;13.10;99.90;;;;;;4995380;28;20042;-71
2022/10/25 03:39:59;;;;;;;27.00;11.75;;;13.10;99.90;;;;;;4979047;28;20044;-71
2022/10/25 03:42:25;;;;;;;26.75;12.90;;;13.10;99.90;;;;;;4978247;28;20057;-71
2022/10/25 03:44:51;;;;;;;27.42;13.50;;;13.10;99.90;;;;;;4995156;28;20089;-71
2022/10/25 03:47:16;;;;;;;25.25;11.95;;;13.00;99.90;;;;;;4995158;28;20034;-71
2022/10/25 03:49:42;;;;;;;24.83;12.07;;;13.00;99.90;;;;;;4978725;28;20042;-71
2022/10/25 03:52:08;;;;;;;20.05;11.27;;;13.00;99.90;;;;;;4979319;28;20042;-71
2022/10/25 03:54:34;;;;;;;19.23;11.45;;;13.00;99.90;;;;;;4995407;28;20491;-71
2022/10/25 03:57:00;;;;;;;24.70;12.48;;;13.00;99.90;;;;;;4978913;28;20050;-71
2022/10/25 03:59:26;;;;;;;27.58;12.73;;;13.00;99.90;;;;;;4978897;28;20514;-71
2022/10/25 04:01:51;;;;;;;25.25;12.10;;;13.00;99.90;;;;;;4979000;28;20125;-71
2022/10/25 04:04:17;;;;;;;24.27;13.10;;;13.10;99.90;;;;;;4994616;28;20046;-71
2022/10/25 04:06:43;;;;;;;22.02;12.25;;;13.10;99.90;;;;;;4995022;28;20070;-71
2022/10/25 04:09:09;;;;;;;25.00;11.80;;;13.10;99.90;;;;;;4978685;28;20574;-71
2022/10/25 04:11:34;;;;;;;28.40;12.27;;;13.10;99.90;;;;;;4994888;28;20042;-70
2022/10/25 04:14:00;;;;;;;25.42;11.90;;;13.10;99.90;;;;;;4978350;28;20053;-71
2022/10/25 04:16:25;;;;;;;27.77;11.80;;;13.10;99.90;;;;;;4978397;28;20168;-71
2022/10/25 04:18:52;;;;;;;25.63;11.45;;;13.00;99.90;;;;;;4978406;28;20042;-71
2022/10/25 04:21:21;;;;;;;23.85;12.15;;;13.10;99.90;;;;;;4978405;28;20105;-71
2022/10/25 04:23:48;;;;;;;25.55;13.07;;;13.10;99.90;;;;;;4977990;28;20039;-71
2022/10/25 04:26:16;;;;;;;29.08;12.18;;;13.10;99.90;;;;;;4978236;28;20042;-70
2022/10/25 04:28:43;;;;;;;25.98;12.30;;;13.10;99.90;;;;;;4978423;28;20054;-70
2022/10/25 04:31:08;;;;;;;28.67;12.45;;;13.10;99.90;;;;;;4994555;28;20038;-71
2022/10/25 04:33:34;;;;;;;27.80;12.45;;;13.10;99.90;;;;;;4978767;28;20554;-70
2022/10/25 04:35:59;;;;;;;28.70;11.90;;;13.10;99.90;;;;;;4978308;28;20038;-70
2022/10/25 04:38:25;;;;;;;27.45;12.70;;;13.10;99.90;;;;;;4994277;28;20520;-71
2022/10/25 04:40:59;;;;;;;22.52;12.30;;;13.10;99.90;;;;;;4978070;28;20046;-71
2022/10/25 04:43:26;;;;;;;27.15;12.15;;;13.10;99.90;;;;;;4962024;28;20049;-71
2022/10/25 04:45:52;;;;;;;35.13;13.25;;;13.20;99.90;;;;;;4994363;28;20518;-71
2022/10/25 04:48:18;;;;;;;27.23;12.75;;;13.10;99.90;;;;;;4977764;28;20034;-70
2022/10/25 04:50:43;;;;;;;28.52;12.20;;;13.10;99.90;;;;;;4977795;28;20392;-71
2022/10/25 04:53:09;;;;;;;31.55;13.98;;;13.20;99.90;;;;;;4995429;28;20061;-70
2022/10/25 04:55:35;;;;;;;31.23;12.90;;;13.20;99.90;;;;;;4961987;28;20153;-71
2022/10/25 04:58:01;;;;;;;30.15;12.02;;;13.20;99.90;;;;;;4977725;28;20048;-71
2022/10/25 05:00:26;;;;;;;31.52;13.35;;;13.20;99.90;;;;;;4977541;28;20049;-70
2022/10/25 05:02:55;;;;;;;25.52;12.13;;;13.20;99.90;;;;;;4993878;28;20050;-71
2022/10/25 05:05:22;;;;;;;24.75;12.23;;;13.20;99.90;;;;;;4977932;28;20042;-71
2022/10/25 05:07:48;;;;;;;28.45;11.90;;;13.20;99.90;;;;;;4993874;28;20046;-71
2022/10/25 05:10:14;;;;;;;26.77;11.93;;;13.10;99.90;;;;;;4977839;28;20132;-71
2022/10/25 05:12:40;;;;;;;26.75;11.90;;;13.20;99.90;;;;;;4977660;28;20376;-71
2022/10/25 05:15:06;;;;;;;25.00;11.13;;;13.10;99.90;;;;;;4977180;28;20046;-71
2022/10/25 05:17:32;;;;;;;23.67;10.20;;;13.10;99.90;;;;;;4977801;28;20129;-71
2022/10/25 05:19:58;;;;;;;20.83;10.80;;;13.10;99.90;;;;;;4977498;28;20558;-70
2022/10/25 05:22:24;;;;;;;22.00;11.18;;;13.00;99.90;;;;;;4977266;28;20042;-71
2022/10/25 05:24:50;;;;;;;26.92;10.52;;;13.00;99.90;;;;;;4977569;28;20039;-71
2022/10/25 05:27:16;;;;;;;20.88;10.48;;;13.00;99.90;;;;;;4977433;28;20415;-71
2022/10/25 05:29:41;;;;;;;22.08;10.93;;;12.90;99.90;;;;;;4993465;28;20080;-70
2022/10/25 05:32:07;;;;;;;23.48;10.23;;;12.90;99.90;;;;;;4977577;28;20041;-70
2022/10/25 05:34:32;;;;;;;26.85;10.75;;;12.90;99.90;;;;;;4993046;28;20550;-71
2022/10/25 05:36:58;;;;;;;23.65;10.82;;;12.80;99.90;;;;;;4976281;28;20092;-71
2022/10/25 05:39:24;;;;;;;24.67;10.63;;;12.80;99.90;;;;;;4992654;28;20042;-70
2022/10/25 05:41:50;;;;;;;24.17;10.25;;;12.80;99.90;;;;;;4976318;28;20042;-71
2022/10/25 05:44:16;;;;;;;22.40;9.98;;;12.70;99.90;;;;;;4992510;28;20047;-71
2022/10/25 05:46:42;;;;;;;26.30;9.98;;;12.80;99.90;;;;;;4976508;28;20117;-71
2022/10/25 05:49:08;;;;;;;24.52;9.13;;;12.80;99.90;;;;;;4976851;28;20101;-71
2022/10/25 05:51:34;;;;;;;24.40;9.18;;;12.70;99.90;;;;;;4960482;28;20046;-71
2022/10/25 05:54:03;;;;;;;24.42;8.38;;;12.70;99.90;;;;;;4976953;28;20074;-71
2022/10/25 05:56:30;;;;;;;20.35;8.50;;;12.70;99.90;;;;;;4976472;28;20050;-71
2022/10/25 05:58:56;;;;;;;22.42;8.55;;;12.70;99.90;;;;;;4961027;28;20078;-70
2022/10/25 06:01:23;;;;;;;14.40;7.75;;;12.70;99.90;;;;;;4976149;28;20060;-70
2022/10/25 06:03:50;;;;;;;20.40;7.93;;;12.70;99.90;;;;;;4975974;28;20104;-70
2022/10/25 06:06:17;;;;;;;15.88;7.60;;;12.70;99.90;;;;;;4978761;28;20047;-70
2022/10/25 06:08:43;;;;;;;18.77;7.45;;;12.60;99.90;;;;;;4980188;28;20385;-71
2022/10/25 06:11:14;;;;;;;22.23;8.35;;;12.60;99.90;;;;;;4980052;28;20061;-71
2022/10/25 06:13:40;;;;;;;22.48;8.35;;;12.60;99.90;;;;;;4980133;28;20519;-70
2022/10/25 06:16:09;;;;;;;19.85;7.78;;;12.60;99.90;;;;;;4980654;28;20078;-71
2022/10/25 06:18:37;;;;;;;23.48;9.57;;;12.60;99.90;;;;;;4980439;28;20042;-71
2022/10/25 06:21:21;;;;;;;22.58;9.20;;;12.60;99.90;;;;;;4980551;28;20065;-71
2022/10/25 06:23:47;;;;;;;25.08;9.95;;;12.70;99.90;;;;;;4980136;28;20050;-71
2022/10/25 06:26:19;;;;;;;21.38;8.68;;;12.60;99.90;;;;;;4980121;28;20073;-70
2022/10/25 06:28:45;;;;;;;23.20;10.15;;;12.70;99.90;;;;;;4979790;28;20053;-73
2022/10/25 06:31:16;;;;;;;22.15;10.05;;;12.70;99.90;;;;;;4995841;28;20038;-72
2022/10/25 06:33:42;;;;;;;27.05;9.15;;;12.70;99.90;;;;;;4981108;28;20137;-71
2022/10/25 06:36:15;;;;;;;26.27;9.90;;;12.70;99.90;;;;;;4979870;28;20499;-70
2022/10/25 06:38:41;;;;;;;25.50;10.40;;;12.70;99.90;;;;;;4980019;28;20507;-71
2022/10/25 06:41:10;;;;;;;21.70;9.85;;;12.70;99.90;;;;;;4996233;28;20053;-71
2022/10/25 06:43:37;;;;;;;26.50;9.80;;;12.80;99.90;;;;;;4980432;28;20481;-70
2022/10/25 06:46:34;;;;;;;23.88;9.38;;;12.80;99.90;;;;;;4980967;28;20046;-71
2022/10/25 06:49:01;;;;;;;19.67;9.80;;;12.80;99.90;;;;;;4969190;28;20499;-71
2022/10/25 06:51:27;;;;;;;23.48;9.73;;;12.80;99.90;;;;;;4980652;28;20035;-71
2022/10/25 06:53:57;;;;;;;24.52;9.38;;;12.80;99.90;;;;;;4964108;28;20128;-71
2022/10/25 06:56:23;;;;;;;27.88;8.88;;;12.80;99.90;;;;;;4980433;28;20042;-71
2022/10/25 06:58:49;;;;;;;26.27;9.50;;;12.80;99.90;;;;;;4980153;28;20139;-70
2022/10/25 07:01:17;;;;;;;26.05;10.48;;;12.80;99.90;;;;;;4979810;28;20507;-71
2022/10/25 07:03:44;;;;;;;26.50;9.73;;;12.90;99.90;;;;;;4996015;28;20081;-71
2022/10/25 07:06:13;;;;;;;26.52;10.25;;;12.90;99.90;;;;;;4980150;28;20100;-71
2022/10/25 07:08:40;;;;;;;30.20;9.88;;;12.90;99.90;;;;;;4996045;28;20046;-70
2022/10/25 07:11:11;;;;;;;26.23;10.07;;;12.90;99.90;;;;;;4979800;28;20097;-70
2022/10/25 07:13:36;;;;;;;30.98;9.80;;;12.90;99.90;;;;;;4979853;28;20044;-70
2022/10/25 07:16:04;;;;;;;27.38;9.50;;;13.00;99.90;;;;;;4963313;28;20125;-70
2022/10/25 07:18:30;;;;;;;24.40;9.20;;;13.00;99.90;;;;;;4979570;28;20105;-73
2022/10/25 07:21:04;;;;;;;26.70;9.45;;;13.00;99.90;;;;;;4979185;28;20121;-71
2022/10/25 07:23:30;;;;;;;21.25;8.98;;;13.00;99.90;;;;;;4979919;28;20081;-71
2022/10/25 07:25:56;;;;;;;25.38;9.05;;;13.00;99.90;;;;;;4979881;28;20066;-70
2022/10/25 07:28:22;;;;;;;25.40;10.07;;;13.00;99.90;;;;;;4979909;28;20126;-70
2022/10/25 07:30:48;;;;;;;29.40;11.38;;;13.00;99.90;;;;;;4980069;28;20373;-70
2022/10/25 07:33:15;;;;;;;30.90;10.05;;;13.10;99.90;;;;;;4995699;28;20411;-70
2022/10/25 07:35:47;;;;;;;27.65;10.57;;;13.10;99.90;;;;;;4995260;28;20427;-70
2022/10/25 07:38:13;;;;;;;30.70;11.33;;;13.10;99.90;;;;;;4978978;28;20049;-70
2022/10/25 07:40:39;;;;;;;34.05;11.48;;;13.10;99.90;;;;;;4994837;28;20039;-71
2022/10/25 07:43:05;;;;;;;29.38;10.90;;;13.20;99.90;;;;;;4978043;28;20042;-73
2022/10/25 07:45:30;;;;;;;29.38;11.05;;;13.20;99.90;;;;;;4977961;28;20049;-73
2022/10/25 07:47:56;;;;;;;27.73;11.13;;;13.30;99.90;;;;;;4994169;28;20046;-73
2022/10/25 07:50:22;;;;;;;29.27;11.13;;;13.30;99.90;;;;;;4978113;28;20086;-73
2022/10/25 07:52:48;;;;;;;29.17;10.70;;;13.30;99.90;;;;;;4977805;28;20084;-73
2022/10/25 07:55:13;;;;;;;35.22;11.13;;;13.30;99.90;;;;;;4978054;28;20077;-73
2022/10/25 07:57:39;;;;;;;33.15;11.48;;;13.40;99.90;;;;;;4994224;28;20526;-73
2022/10/25 08:00:06;;;;;;;29.27;12.13;;;13.40;99.90;;;;;;4994033;28;20057;-73
2022/10/25 08:02:32;;;;;;;28.73;12.18;;;13.50;99.90;;;;;;4977899;28;20488;-73
2022/10/25 08:04:58;;;;;;;29.42;12.50;;;13.60;99.90;;;;;;4977569;28;20042;-73
2022/10/25 08:07:24;;;;;;;31.42;12.25;;;13.60;99.90;;;;;;4977712;28;20038;-73
2022/10/25 08:09:49;;;;;;;30.42;12.73;;;13.70;99.90;;;;;;4977671;28;20034;-74
2022/10/25 08:12:15;;;;;;;25.88;12.82;;;13.70;99.90;;;;;;4977860;28;20399;-73
2022/10/25 08:14:40;;;;;;;32.55;13.32;;;13.70;99.90;;;;;;4993636;28;20507;-73
2022/10/25 08:17:06;;;;;;;31.40;13.02;;;13.70;99.90;;;;;;4993578;28;20042;-73
2022/10/25 08:19:32;;;;;;;26.45;13.40;;;13.80;99.90;;;;;;4993364;28;20045;-73
2022/10/25 08:21:57;;;;;;;28.45;12.57;;;13.80;99.90;;;;;;4993681;28;20129;-73
2022/10/25 08:24:23;;;;;;;30.25;12.95;;;13.80;99.90;;;;;;4977392;28;20453;-73
2022/10/25 08:26:48;;;;;;;29.08;12.48;;;13.80;99.90;;;;;;4993401;28;20495;-73
2022/10/25 08:29:14;;;;;;;30.70;13.70;;;13.70;99.90;;;;;;4976655;28;20173;-73
2022/10/25 08:31:39;;;;;;;28.63;13.15;;;13.70;99.90;;;;;;4977168;28;20041;-73
2022/10/25 08:34:05;;;;;;;24.00;12.18;;;13.70;99.90;;;;;;4977122;28;20071;-73
2022/10/25 08:36:30;;;;;;;31.38;12.98;;;13.80;99.90;;;;;;4977084;28;20042;-73
2022/10/25 08:38:56;;;;;;;26.45;12.63;;;13.70;99.90;;;;;;4976994;28;20129;-73
2022/10/25 08:41:33;;;;;;;28.75;13.20;;;13.80;99.90;;;;;;4993434;28;20046;-73
2022/10/25 08:44:19;;;;;;;28.20;12.25;;;13.80;99.90;;;;;;4993071;28;20499;-73
2022/10/25 08:47:24;;;;;;;24.27;12.07;;;13.90;99.90;;;;;;4977330;28;20384;-73
2022/10/25 08:50:06;;;;;;;29.10;12.50;;;13.80;99.90;;;;;;4941558;28;20462;-73
2022/10/25 08:52:57;;;;;;;28.23;12.85;;;13.90;99.90;;;;;;4977198;28;20443;-73
2022/10/25 08:55:36;;;;;;;26.50;12.18;;;13.90;99.90;;;;;;4976833;28;20050;-73
2022/10/25 08:58:30;;;;;;;23.25;10.88;;;14.00;99.90;;;;;;4976754;28;20041;-73
2022/10/25 09:00:58;;;;;;;24.45;10.48;;;14.20;99.90;;;;;;4974728;28;20134;-73
2022/10/25 09:03:26;;;;;;;23.55;11.35;;;14.20;99.90;;;;;;4976626;28;20042;-73
2022/10/25 09:05:58;;;;;;;27.55;11.63;;;14.30;99.90;;;;;;4976898;28;20037;-73
2022/10/25 09:08:58;;;;;;;21.80;9.65;;;14.30;99.90;;;;;;4976527;28;20053;-73
2022/10/25 09:11:43;;;;;;;23.45;10.02;;;14.30;99.90;;;;;;4976604;28;20050;-73
2022/10/25 09:14:28;;;;;;;23.38;9.10;;;14.40;99.90;;;;;;4976840;28;20089;-74
2022/10/25 09:17:03;;;;;;;17.15;8.45;;;14.60;99.90;;;;;;4976425;28;20085;-74
2022/10/25 09:19:45;;;;;;;24.33;9.32;;;14.70;99.90;;;;;;4976305;28;20530;-73
2022/10/25 09:22:23;;;;;;;21.02;7.95;;;14.80;99.90;;;;;;4977031;28;20069;-73
2022/10/25 09:25:10;;;;;;;21.02;7.63;;;14.80;99.90;;;;;;4960539;28;20054;-73
2022/10/25 09:27:49;;;;;;;23.40;8.32;;;14.90;99.90;;;;;;4976441;28;20046;-73
2022/10/25 09:30:15;;;;;;;19.85;7.82;;;14.90;99.90;;;;;;4976258;28;20046;-73
2022/10/25 09:32:49;;;;;;;21.92;8.30;;;14.90;99.90;;;;;;4976322;28;20034;-73
2022/10/25 09:35:29;;;;;;;19.30;7.05;;;14.90;99.90;;;;;;4976350;28;20049;-74
2022/10/25 09:38:17;;;;;;;19.95;6.95;;;15.00;99.90;;;;;;4976294;28;20038;-74
2022/10/25 09:40:49;;;;;;;20.13;6.55;;;15.10;99.90;;;;;;4977738;28;20499;-74
2022/10/25 09:43:20;;;;;;;15.80;6.00;;;15.10;99.90;;;;;;4980456;28;20061;-74
2022/10/25 09:45:50;;;;;;;18.45;6.05;;;15.20;99.90;;;;;;4964133;28;20043;-74
2022/10/25 09:48:19;;;;;;;14.93;6.68;;;15.20;99.90;;;;;;4963942;28;20038;-74
2022/10/25 09:51:03;;;;;;;18.08;6.35;;;15.20;99.90;;;;;;4963952;28;20043;-74
2022/10/25 09:53:31;;;;;;;15.15;6.43;;;15.30;99.90;;;;;;4964221;28;20038;-74
2022/10/25 09:55:58;;;;;;;17.33;6.57;;;15.20;99.90;;;;;;4979988;28;20125;-74
2022/10/25 09:58:32;;;;;;;18.15;6.57;;;15.20;99.90;;;;;;4979880;28;20103;-74
2022/10/25 10:01:04;;;;;;;17.95;6.15;;;15.10;99.90;;;;;;4980160;28;20089;-74
2022/10/25 10:03:34;;;;;;;14.20;5.90;;;15.10;99.90;;;;;;4979812;28;20038;-73
2022/10/25 10:06:03;;;;;;;18.63;6.80;;;15.20;99.90;;;;;;4979812;28;20035;-74
2022/10/25 10:08:33;;;;;;;17.73;6.20;;;15.20;99.90;;;;;;4979989;28;20034;-74
2022/10/25 10:10:59;;;;;;;19.58;6.55;;;15.20;99.90;;;;;;4979981;28;20042;-74
2022/10/25 10:13:46;;;;;;;14.75;5.72;;;15.20;99.90;;;;;;4979934;28;20046;-74
2022/10/25 10:16:24;;;;;;;13.93;6.13;;;15.20;99.90;;;;;;4979672;28;20050;-74
2022/10/25 10:18:50;;;;;;;19.13;5.57;;;15.30;99.90;;;;;;4979796;28;20034;-74
2022/10/25 10:21:20;;;;;;;15.32;5.88;;;15.20;99.90;;;;;;4963422;28;20511;-74
2022/10/25 10:23:52;;;;;;;13.98;5.32;;;15.30;99.90;;;;;;4979396;28;20053;-74
2022/10/25 10:26:45;;;;;;;11.70;5.28;;;15.30;99.90;;;;;;4979722;28;20050;-74
2022/10/25 10:29:15;;;;;;;13.23;4.65;;;15.40;99.90;;;;;;4979330;28;20499;-74
2022/10/25 10:31:46;;;;;;;17.75;5.80;;;15.40;99.90;;;;;;4963548;28;20042;-74
2022/10/25 10:34:31;;;;;;;12.60;5.22;;;15.40;99.90;;;;;;4979296;28;20502;-74
2022/10/25 10:37:11;;;;;;;15.57;4.80;;;15.40;99.90;;;;;;4979289;28;20038;-74
2022/10/25 10:40:03;;;;;;;17.15;4.50;;;15.40;99.90;;;;;;4963530;28;20078;-74
2022/10/25 10:42:28;;;;;;;17.55;4.85;;;15.40;99.90;;;;;;4963166;28;20038;-74
2022/10/25 10:45:14;;;;;;;13.82;4.00;;;15.50;99.90;;;;;;4963349;28;20089;-74
2022/10/25 10:47:49;;;;;;;13.25;4.63;;;15.60;99.90;;;;;;4963117;28;20039;-74
2022/10/25 10:50:24;;;;;;;15.82;4.35;;;15.70;99.90;;;;;;4979031;28;20042;-74
2022/10/25 10:52:53;;;;;;;15.02;4.25;;;15.80;99.90;;;;;;4962391;28;20034;-74
2022/10/25 10:55:48;;;;;;;15.10;4.70;;;15.90;99.90;;;;;;4978981;28;20415;-74
2022/10/25 10:58:16;;;;;;;13.15;3.60;;;16.30;99.90;;;;;;4963439;28;20435;-74
2022/10/25 11:00:51;;;;;;;10.75;4.00;;;16.50;99.90;;;;;;4962778;28;20109;-74
2022/10/25 11:03:39;;;;;;;14.80;4.35;;;16.40;99.90;;;;;;4979028;28;20050;-74
2022/10/25 11:06:28;;;;;;;12.88;3.50;;;17.30;99.90;;;;;;4979866;28;20447;-74
2022/10/25 11:09:07;;;;;;;16.75;3.92;;;19.00;99.90;;;;;;4967403;28;20092;-74
2022/10/25 11:11:32;;;;;;;12.68;4.10;;;19.50;99.90;;;;;;4978676;28;20039;-74
2022/10/25 11:14:00;;;;;;;16.73;4.03;;;19.20;99.90;;;;;;4978632;28;20043;-74
2022/10/25 11:16:50;;;;;;;12.23;3.20;;;19.20;99.90;;;;;;4978528;28;20046;-74
2022/10/25 11:19:44;;;;;;;10.25;3.65;;;19.10;99.90;;;;;;4978302;28;20045;-74
2022/10/25 11:22:24;;;;;;;16.80;3.35;;;19.10;99.90;;;;;;4978448;28;20049;-74
2022/10/25 11:25:05;;;;;;;10.15;2.95;;;19.60;99.90;;;;;;4978406;28;20117;-74
2022/10/25 11:27:46;;;;;;;12.30;3.60;;;20.40;99.90;;;;;;4978629;28;20539;-74
2022/10/25 11:30:22;;;;;;;12.38;3.58;;;20.00;99.90;;;;;;4978489;28;20057;-74
2022/10/25 11:33:22;;;;;;;9.60;3.05;;;19.30;99.90;;;;;;4978594;28;20042;-74
2022/10/25 11:35:47;;;;;;;13.15;4.00;;;19.00;99.90;;;;;;4962199;28;20043;-74
2022/10/25 11:38:23;;;;;;;11.73;3.10;;;18.70;99.90;;;;;;4978374;28;20043;-74
2022/10/25 11:41:26;;;;;;;8.85;3.60;;;18.60;99.90;;;;;;4978336;28;20046;-74
2022/10/25 11:44:15;;;;;;;15.48;3.83;;;18.60;99.90;;;;;;4978059;28;20058;-74
2022/10/25 11:46:55;;;;;;;15.23;4.07;;;18.30;99.90;;;;;;4978040;28;20121;-74
2022/10/25 11:49:48;;;;;;;13.10;3.42;;;18.00;99.90;;;;;;4978178;28;20058;-74
2022/10/25 11:52:25;;;;;;;9.93;3.05;;;17.70;99.90;;;;;;4978212;28;20046;-74
2022/10/25 11:55:06;;;;;;;9.45;3.03;;;17.40;99.90;;;;;;4977888;28;20522;-74
2022/10/25 11:57:44;;;;;;;11.73;2.95;;;17.10;99.90;;;;;;4977839;28;20050;-74
2022/10/25 12:00:15;;;;;;;14.95;3.63;;;17.20;99.90;;;;;;4977678;28;20050;-74
2022/10/25 12:02:58;;;;;;;10.02;2.97;;;17.20;99.90;;;;;;4961091;28;20078;-74
2022/10/25 12:05:32;;;;;;;10.90;2.83;;;17.20;99.90;;;;;;4977679;28;20235;-74
2022/10/25 12:08:22;;;;;;;15.07;3.40;;;17.40;99.90;;;;;;4977622;28;20396;-74
2022/10/25 12:10:53;;;;;;;12.18;2.90;;;17.30;99.90;;;;;;4961755;28;20097;-74
2022/10/25 12:13:25;;;;;;;8.65;2.53;;;17.20;99.90;;;;;;4977564;28;20435;-74
2022/10/25 12:15:54;;;;;;;10.73;3.10;;;17.30;99.90;;;;;;4977553;28;20046;-74
2022/10/25 12:18:28;;;;;;;8.98;2.50;;;17.50;99.90;;;;;;4961155;28;20038;-74
2022/10/25 12:20:54;;;;;;;10.40;2.63;;;18.30;99.90;;;;;;4961273;28;20073;-74
2022/10/25 12:23:23;;;;;;;8.93;2.60;;;19.50;99.90;;;;;;4977328;28;20042;-74
2022/10/25 12:25:51;;;;;;;7.65;2.47;;;20.30;99.90;;;;;;4977187;28;20034;-74
2022/10/25 12:28:34;;;;;;;15.25;2.47;;;20.00;99.90;;;;;;4977166;28;20089;-74
2022/10/25 12:31:05;;;;;;;12.45;2.67;;;19.30;99.90;;;;;;4977244;28;20038;-74
2022/10/25 12:33:39;;;;;;;11.82;2.75;;;18.70;99.90;;;;;;4977262;28;20038;-74
2022/10/25 12:36:21;;;;;;;10.20;3.08;;;18.40;99.90;;;;;;4977136;28;20049;-74
2022/10/25 12:38:47;;;;;;;13.60;2.83;;;18.90;99.90;;;;;;4977077;28;20047;-74
2022/10/25 12:41:26;;;;;;;9.27;2.38;;;18.90;99.90;;;;;;4976999;28;20064;-74
2022/10/25 12:44:10;;;;;;;11.75;2.65;;;18.70;99.90;;;;;;4960654;28;20050;-74
2022/10/25 12:46:56;;;;;;;12.02;2.63;;;18.20;99.90;;;;;;4976911;28;20120;-74
2022/10/25 12:49:46;;;;;;;9.80;2.90;;;17.90;99.90;;;;;;4977071;28;20034;-74
2022/10/25 12:52:32;;;;;;;6.80;2.42;;;17.50;99.90;;;;;;4977086;28;20038;-74
2022/10/25 12:55:32;;;;;;;10.10;2.25;;;17.30;99.90;;;;;;4976797;28;20034;-74